createdAt,value
2018-05-12T00:00:09.771Z,98934.42
2018-05-12T00:02:38.042Z,98938.34
2018-05-12T00:05:06.323Z,98942.10
2018-05-12T00:07:34.594Z,98938.81
2018-05-12T00:10:03.241Z,98939.83
2018-05-12T00:12:31.527Z,98937.44
2018-05-12T00:14:59.885Z,98944.56
2018-05-12T00:17:28.119Z,98936.28
2018-05-12T00:19:56.417Z,98943.66
2018-05-12T00:22:24.691Z,98943.49
2018-05-12T00:24:53.050Z,98936.94
2018-05-12T00:27:21.484Z,98928.46
2018-05-12T00:29:49.767Z,98942.06
2018-05-12T00:32:18.030Z,98938.52
2018-05-12T00:34:46.367Z,98938.33
2018-05-12T00:37:14.734Z,98927.69
2018-05-12T00:39:43.024Z,98943.50
2018-05-12T00:42:11.285Z,98941.61
2018-05-12T00:44:39.554Z,98937.12
2018-05-12T00:47:07.842Z,98935.27
2018-05-12T00:49:36.129Z,98937.17
2018-05-12T00:52:05.206Z,98942.36
2018-05-12T00:54:33.488Z,98940.51
2018-05-12T00:57:01.770Z,98936.25
2018-05-12T00:59:30.476Z,98934.29
2018-05-12T01:01:58.873Z,98937.95
2018-05-12T01:04:27.130Z,98928.59
2018-05-12T01:06:55.389Z,98932.17
2018-05-12T01:09:23.730Z,98931.22
2018-05-12T01:11:52.040Z,98929.38
2018-05-12T01:14:20.333Z,98930.81
2018-05-12T01:16:49.230Z,98929.38
2018-05-12T01:19:17.490Z,98936.11
2018-05-12T01:21:45.779Z,98933.47
2018-05-12T01:24:14.138Z,98937.21
2018-05-12T01:26:42.471Z,98931.19
2018-05-12T01:29:10.722Z,98925.44
2018-05-12T01:31:39.043Z,98931.58
2018-05-12T01:34:07.338Z,98924.30
2018-05-12T01:36:35.944Z,98930.01
2018-05-12T01:39:04.219Z,98926.16
2018-05-12T01:41:32.527Z,98928.03
2018-05-12T01:44:00.821Z,98928.94
2018-05-12T01:46:29.105Z,98930.28
2018-05-12T01:48:57.389Z,98932.96
2018-05-12T01:51:25.665Z,98929.80
2018-05-12T01:53:53.956Z,98930.11
2018-05-12T01:56:22.241Z,98926.89
2018-05-12T01:58:51.245Z,98933.77
2018-05-12T02:01:20.282Z,98926.33
2018-05-12T02:03:48.577Z,98929.09
2018-05-12T02:06:16.850Z,98930.16
2018-05-12T02:08:45.146Z,98921.98
2018-05-12T02:11:13.411Z,98927.23
2018-05-12T02:13:41.709Z,98929.27
2018-05-12T02:16:10.013Z,98932.76
2018-05-12T02:18:38.296Z,98921.83
2018-05-12T02:21:06.586Z,98930.09
2018-05-12T02:23:34.857Z,98921.75
2018-05-12T02:26:03.143Z,98928.70
2018-05-12T02:28:31.454Z,98927.61
2018-05-12T02:30:59.718Z,98924.45
2018-05-12T02:33:28.039Z,98922.62
2018-05-12T02:35:56.330Z,98924.42
2018-05-12T02:38:24.597Z,98923.91
2018-05-12T02:40:52.899Z,98913.08
2018-05-12T02:43:21.193Z,98910.98
2018-05-12T02:45:49.530Z,98906.59
2018-05-12T02:48:17.761Z,98909.13
2018-05-12T02:50:46.049Z,98916.72
2018-05-12T02:53:14.516Z,98912.31
2018-05-12T02:55:42.778Z,98902.56
2018-05-12T02:58:11.088Z,98904.86
2018-05-12T03:00:39.394Z,98903.80
2018-05-12T03:03:07.680Z,98902.84
2018-05-12T03:05:35.958Z,98903.59
2018-05-12T03:08:04.258Z,98897.03
2018-05-12T03:10:32.534Z,98902.73
2018-05-12T03:13:00.810Z,98897.13
2018-05-12T03:15:29.104Z,98893.92
2018-05-12T03:17:57.401Z,98894.51
2018-05-12T03:20:25.658Z,98895.34
2018-05-12T03:22:53.964Z,98893.58
2018-05-12T03:25:22.454Z,98890.24
2018-05-12T03:27:50.750Z,98886.92
2018-05-12T03:30:19.093Z,98889.44
2018-05-12T03:32:47.378Z,98892.17
2018-05-12T03:35:15.694Z,98888.20
2018-05-12T03:37:43.974Z,98895.39
2018-05-12T03:40:12.237Z,98901.22
2018-05-12T03:42:40.524Z,98904.83
2018-05-12T03:45:08.792Z,98900.59
2018-05-12T03:47:37.078Z,98903.34
2018-05-12T03:50:06.164Z,98908.19
2018-05-12T03:52:34.421Z,98914.08
2018-05-12T03:55:02.710Z,98921.59
2018-05-12T03:57:30.973Z,98923.06
2018-05-12T03:59:59.306Z,98921.38
2018-05-12T04:02:27.529Z,98928.72
2018-05-12T04:05:07.661Z,98930.55
2018-05-12T04:07:47.760Z,98938.39
2018-05-12T04:10:23.181Z,98947.54
2018-05-12T04:12:51.416Z,98942.46
2018-05-12T04:15:19.693Z,98948.83
2018-05-12T04:17:47.991Z,98939.30
2018-05-12T04:20:16.335Z,98949.11
2018-05-12T04:22:44.772Z,98950.14
2018-05-12T04:25:13.106Z,98950.02
2018-05-12T04:27:41.375Z,98954.67
2018-05-12T04:30:09.699Z,98949.73
2018-05-12T04:32:38.796Z,98955.72
2018-05-12T04:35:07.073Z,98953.02
2018-05-12T04:37:35.402Z,98957.95
2018-05-12T04:40:03.688Z,98955.44
2018-05-12T04:42:32.782Z,98952.95
2018-05-12T04:45:01.091Z,98955.71
2018-05-12T04:47:29.369Z,98959.70
2018-05-12T04:49:57.656Z,98959.53
2018-05-12T04:52:26.304Z,98958.78
2018-05-12T04:54:54.619Z,98960.62
2018-05-12T04:57:22.868Z,98957.17
2018-05-12T04:59:51.201Z,98958.08
2018-05-12T05:02:19.522Z,98959.52
2018-05-12T05:04:48.714Z,98960.94
2018-05-12T05:07:17.037Z,98949.84
2018-05-12T05:09:45.275Z,98956.16
2018-05-12T05:12:13.553Z,98953.09
2018-05-12T05:14:41.818Z,98949.82
2018-05-12T05:17:10.946Z,98959.30
2018-05-12T05:19:39.302Z,98957.69
2018-05-12T05:22:07.574Z,98955.17
2018-05-12T05:24:36.516Z,98947.19
2018-05-12T05:27:04.851Z,98949.48
2018-05-12T05:29:33.162Z,98949.73
2018-05-12T05:32:01.443Z,98947.70
2018-05-12T05:34:29.762Z,98941.46
2018-05-12T05:36:58.012Z,98946.28
2018-05-12T05:39:27.357Z,98941.19
2018-05-12T05:41:55.618Z,98946.45
2018-05-12T05:44:23.935Z,98945.84
2018-05-12T05:46:52.212Z,98952.20
2018-05-12T05:49:20.490Z,98950.80
2018-05-12T05:51:49.099Z,98952.56
2018-05-12T05:54:17.376Z,98947.34
2018-05-12T05:56:45.644Z,98951.19
2018-05-12T05:59:13.951Z,98947.30
2018-05-12T06:01:42.219Z,98939.94
2018-05-12T06:04:10.528Z,98945.37
2018-05-12T06:06:38.837Z,98946.63
2018-05-12T06:09:07.130Z,98943.06
2018-05-12T06:11:35.395Z,98943.28
2018-05-12T06:14:03.682Z,98942.66
2018-05-12T06:16:31.962Z,98925.74
2018-05-12T06:19:00.258Z,98932.86
2018-05-12T06:21:28.536Z,98934.82
2018-05-12T06:23:56.830Z,98929.07
2018-05-12T06:26:25.128Z,98927.09
2018-05-12T06:28:53.426Z,98927.53
2018-05-12T06:31:21.790Z,98924.92
2018-05-12T06:33:50.109Z,98927.98
2018-05-12T06:36:18.422Z,98921.13
2018-05-12T06:38:46.683Z,98926.01
2018-05-12T06:41:14.983Z,98916.02
2018-05-12T06:43:43.253Z,98911.37
2018-05-12T06:46:11.558Z,98915.80
2018-05-12T06:48:40.883Z,98913.00
2018-05-12T06:51:09.830Z,98911.42
2018-05-12T06:53:38.131Z,98910.09
2018-05-12T06:56:06.424Z,98915.07
2018-05-12T06:58:34.707Z,98912.98
2018-05-12T07:01:02.998Z,98910.66
2018-05-12T07:03:31.278Z,98916.82
2018-05-12T07:05:59.621Z,98904.36
2018-05-12T07:08:27.938Z,98902.33
2018-05-12T07:10:56.247Z,98905.75
2018-05-12T07:13:24.522Z,98900.14
2018-05-12T07:15:52.870Z,98900.42
2018-05-12T07:18:21.142Z,98901.07
2018-05-12T07:20:49.461Z,98892.81
2018-05-12T07:23:17.822Z,98897.12
2018-05-12T07:25:46.114Z,98896.46
2018-05-12T07:28:14.432Z,98899.17
2018-05-12T07:30:42.713Z,98900.84
2018-05-12T07:33:11.008Z,98901.45
2018-05-12T07:35:39.258Z,98893.80
2018-05-12T07:38:07.582Z,98892.44
2018-05-12T07:40:35.873Z,98865.38
2018-05-12T07:43:04.188Z,98877.62
2018-05-12T07:45:32.526Z,98884.92
2018-05-12T07:48:00.851Z,98879.58
2018-05-12T07:50:29.131Z,98888.35
2018-05-12T07:52:57.427Z,98875.51
2018-05-12T07:55:25.710Z,98875.03
2018-05-12T07:57:54.000Z,98876.28
2018-05-12T08:00:22.376Z,98870.59
2018-05-12T08:02:50.673Z,98875.00
2018-05-12T08:05:18.990Z,98873.95
2018-05-12T08:07:47.269Z,98867.27
2018-05-12T08:10:15.566Z,98875.58
2018-05-12T08:12:43.893Z,98870.97
2018-05-12T08:15:12.528Z,98863.16
2018-05-12T08:17:40.797Z,98869.48
2018-05-12T08:20:09.616Z,98866.50
2018-05-12T08:22:37.914Z,98860.86
2018-05-12T08:25:06.255Z,98853.02
2018-05-12T08:27:34.610Z,98856.08
2018-05-12T08:30:02.883Z,98848.97
2018-05-12T08:32:31.171Z,98842.70
2018-05-12T08:34:59.487Z,98845.27
2018-05-12T08:37:27.782Z,98831.77
2018-05-12T08:39:56.086Z,98828.50
2018-05-12T08:42:24.453Z,98827.67
2018-05-12T08:44:52.699Z,98825.23
2018-05-12T08:47:21.006Z,98819.20
2018-05-12T08:49:49.290Z,98819.25
2018-05-12T08:52:17.613Z,98820.88
2018-05-12T08:54:45.913Z,98820.95
2018-05-12T08:57:14.187Z,98805.62
2018-05-12T08:59:42.504Z,98815.65
2018-05-12T09:02:10.767Z,98812.23
2018-05-12T09:04:39.058Z,98810.95
2018-05-12T09:07:07.384Z,98807.59
2018-05-12T09:09:35.706Z,98807.53
2018-05-12T09:12:04.037Z,98803.77
2018-05-12T09:14:32.366Z,98805.14
2018-05-12T09:17:00.689Z,98805.03
2018-05-12T09:19:28.976Z,98809.26
2018-05-12T09:21:57.343Z,98806.09
2018-05-12T09:24:25.653Z,98803.73
2018-05-12T09:26:53.969Z,98806.52
2018-05-12T09:29:22.259Z,98806.44
2018-05-12T09:31:50.531Z,98802.35
2018-05-12T09:34:18.887Z,98795.47
2018-05-12T09:36:48.349Z,98801.61
2018-05-12T09:39:16.669Z,98793.92
2018-05-12T09:41:44.933Z,98792.66
2018-05-12T09:44:13.295Z,98786.11
2018-05-12T09:46:41.557Z,98783.45
2018-05-12T09:49:09.927Z,98782.91
2018-05-12T09:51:38.180Z,98783.58
2018-05-12T09:54:07.142Z,98781.97
2018-05-12T09:56:35.383Z,98765.84
2018-05-12T09:59:03.684Z,98773.84
2018-05-12T10:01:31.960Z,98764.03
2018-05-12T10:04:00.340Z,98762.52
2018-05-12T10:06:28.610Z,98756.47
2018-05-12T10:08:56.888Z,98757.01
2018-05-12T10:11:25.150Z,98763.30
2018-05-12T10:13:53.457Z,98752.20
2018-05-12T10:16:21.776Z,98748.55
2018-05-12T10:18:50.144Z,98747.85
2018-05-12T10:21:18.462Z,98738.59
2018-05-12T10:23:46.713Z,98744.83
2018-05-12T10:26:15.046Z,98744.50
2018-05-12T10:28:43.292Z,98738.08
2018-05-12T10:31:11.605Z,98734.89
2018-05-12T10:33:39.908Z,98730.70
2018-05-12T10:36:08.172Z,98729.38
2018-05-12T10:38:36.599Z,98731.28
2018-05-12T10:41:05.865Z,98727.62
2018-05-12T10:43:34.154Z,98728.06
2018-05-12T10:46:02.449Z,98717.45
2018-05-12T10:48:30.946Z,98713.09
2018-05-12T10:50:59.237Z,98713.78
2018-05-12T10:53:27.507Z,98709.50
2018-05-12T10:55:55.805Z,98703.22
2018-05-12T10:58:24.144Z,98697.09
2018-05-12T11:00:52.406Z,98698.25
2018-05-12T11:03:20.736Z,98692.06
2018-05-12T11:05:48.990Z,98692.50
2018-05-12T11:08:17.327Z,98685.67
2018-05-12T11:10:45.603Z,98685.77
2018-05-12T11:13:13.894Z,98679.44
2018-05-12T11:15:42.147Z,98678.66
2018-05-12T11:18:10.455Z,98677.30
2018-05-12T11:20:38.779Z,98670.98
2018-05-12T11:23:07.082Z,98644.77
2018-05-12T11:25:35.489Z,98653.45
2018-05-12T11:28:03.996Z,98652.30
2018-05-12T11:30:32.446Z,98647.81
2018-05-12T11:33:00.789Z,98640.95
2018-05-12T11:35:29.337Z,98649.06
2018-05-12T11:37:57.586Z,98642.11
2018-05-12T11:40:25.870Z,98639.02
2018-05-12T11:42:54.199Z,98634.39
2018-05-12T11:45:22.476Z,98634.84
2018-05-12T11:47:50.796Z,98626.52
2018-05-12T11:50:19.105Z,98631.28
2018-05-12T11:52:47.395Z,98620.61
2018-05-12T11:55:15.707Z,98627.09
2018-05-12T11:57:44.000Z,98627.19
2018-05-12T12:00:12.583Z,98621.23
2018-05-12T12:02:40.905Z,98620.00
2018-05-12T12:05:09.222Z,98623.17
2018-05-12T12:07:37.775Z,98613.80
2018-05-12T12:10:06.115Z,98607.41
2018-05-12T12:12:34.418Z,98603.50
2018-05-12T12:15:02.778Z,98605.61
2018-05-12T12:17:31.036Z,98601.48
2018-05-12T12:19:59.330Z,98603.92
2018-05-12T12:22:27.591Z,98596.34
2018-05-12T12:24:55.942Z,98596.25
2018-05-12T12:27:24.292Z,98591.83
2018-05-12T12:29:54.019Z,98597.67
2018-05-12T12:32:22.324Z,98595.12
2018-05-12T12:34:50.660Z,98598.58
2018-05-12T12:37:18.915Z,98591.42
2018-05-12T12:39:47.895Z,98589.86
2018-05-12T12:42:16.182Z,98584.94
2018-05-12T12:44:44.566Z,98572.41
2018-05-12T12:47:12.805Z,98572.83
2018-05-12T12:49:41.083Z,98572.01
2018-05-12T12:52:09.453Z,98575.11
2018-05-12T12:54:38.211Z,98569.62
2018-05-12T12:57:06.509Z,98555.06
2018-05-12T12:59:34.801Z,98568.75
2018-05-12T13:02:03.118Z,98563.11
2018-05-12T13:04:31.383Z,98561.04
2018-05-12T13:06:59.664Z,98558.80
2018-05-12T13:09:27.996Z,98557.28
2018-05-12T13:11:56.379Z,98552.91
2018-05-12T13:14:24.672Z,98547.00
2018-05-12T13:16:52.922Z,98549.72
2018-05-12T13:19:21.187Z,98546.45
2018-05-12T13:21:49.483Z,98544.56
2018-05-12T13:24:17.759Z,98533.49
2018-05-12T13:26:46.082Z,98540.64
2018-05-12T13:29:14.371Z,98537.83
2018-05-12T13:31:42.670Z,98535.36
2018-05-12T13:34:11.183Z,98533.58
2018-05-12T13:36:39.454Z,98530.19
2018-05-12T13:39:07.748Z,98523.05
2018-05-12T13:41:36.170Z,98526.16
2018-05-12T13:44:04.465Z,98516.44
2018-05-12T13:46:32.759Z,98509.58
2018-05-12T13:49:01.103Z,98512.73
2018-05-12T13:51:29.370Z,98499.77
2018-05-12T13:53:57.702Z,98502.33
2018-05-12T13:56:25.978Z,98495.94
2018-05-12T13:58:54.274Z,98488.73
2018-05-12T14:01:22.614Z,98486.56
2018-05-12T14:03:50.874Z,98493.73
2018-05-12T14:06:19.149Z,98475.36
2018-05-12T14:08:47.538Z,98477.30
2018-05-12T14:11:15.830Z,98476.53
2018-05-12T14:13:44.199Z,98474.57
2018-05-12T14:16:12.374Z,98467.01
2018-05-12T14:18:40.993Z,98466.02
2018-05-12T14:21:09.292Z,98471.84
2018-05-12T14:23:37.608Z,98471.25
2018-05-12T14:26:06.107Z,98473.81
2018-05-12T14:28:34.388Z,98467.98
2018-05-12T14:31:02.748Z,98469.71
2018-05-12T14:33:31.186Z,98466.22
2018-05-12T14:35:59.437Z,98462.92
2018-05-12T14:38:27.711Z,98459.98
2018-05-12T14:40:56.098Z,98456.48
2018-05-12T14:43:24.434Z,98460.09
2018-05-12T14:45:52.790Z,98461.00
2018-05-12T14:48:21.050Z,98456.74
2018-05-12T14:50:49.346Z,98453.04
2018-05-12T14:53:17.606Z,98454.41
2018-05-12T14:55:45.911Z,98448.52
2018-05-12T14:58:14.198Z,98443.27
2018-05-12T15:00:42.491Z,98447.41
2018-05-12T15:03:10.750Z,98453.31
2018-05-12T15:05:39.026Z,98447.09
2018-05-12T15:08:07.343Z,98439.73
2018-05-12T15:10:35.633Z,98433.95
2018-05-12T15:13:04.276Z,98433.13
2018-05-12T15:15:32.555Z,98431.23
2018-05-12T15:18:00.889Z,98421.24
2018-05-12T15:20:29.243Z,98423.52
2018-05-12T15:22:57.513Z,98431.69
2018-05-12T15:25:25.966Z,98413.14
2018-05-12T15:27:54.294Z,98409.50
2018-05-12T15:30:22.590Z,98417.01
2018-05-12T15:32:50.859Z,98413.92
2018-05-12T15:35:19.109Z,98407.72
2018-05-12T15:37:47.946Z,98407.58
2018-05-12T15:40:16.248Z,98406.63
2018-05-12T15:42:44.531Z,98406.09
2018-05-12T15:45:12.812Z,98397.84
2018-05-12T15:47:41.113Z,98396.48
2018-05-12T15:50:09.379Z,98404.31
2018-05-12T15:52:37.693Z,98400.20
2018-05-12T15:55:05.979Z,98398.07
2018-05-12T15:57:34.270Z,98392.46
2018-05-12T16:00:02.558Z,98398.50
2018-05-12T16:02:31.750Z,98393.08
2018-05-12T16:05:00.041Z,98397.34
2018-05-12T16:07:28.334Z,98386.10
2018-05-12T16:09:56.608Z,98382.41
2018-05-12T16:12:24.892Z,98387.27
2018-05-12T16:14:53.162Z,98379.31
2018-05-12T16:17:21.474Z,98371.94
2018-05-12T16:19:49.756Z,98376.14
2018-05-12T16:22:18.019Z,98372.03
2018-05-12T16:24:46.374Z,98373.14
2018-05-12T16:27:14.654Z,98373.45
2018-05-12T16:29:42.963Z,98374.50
2018-05-12T16:32:11.209Z,98369.73
2018-05-12T16:34:39.513Z,98375.09
2018-05-12T16:37:07.969Z,98366.08
2018-05-12T16:39:36.270Z,98369.91
2018-05-12T16:42:05.550Z,98368.35
2018-05-12T16:44:33.911Z,98368.27
2018-05-12T16:47:02.419Z,98363.12
2018-05-12T16:49:30.715Z,98360.59
2018-05-12T16:51:58.978Z,98359.03
2018-05-12T16:54:27.269Z,98349.37
2018-05-12T16:56:55.561Z,98355.02
2018-05-12T16:59:23.878Z,98354.03
2018-05-12T17:01:52.156Z,98354.27
2018-05-12T17:04:20.434Z,98355.47
2018-05-12T17:06:48.695Z,98356.20
2018-05-12T17:09:17.012Z,98349.64
2018-05-12T17:11:45.290Z,98355.82
2018-05-12T17:14:13.620Z,98356.22
2018-05-12T17:16:41.905Z,98356.59
2018-05-12T17:19:10.154Z,98352.33
2018-05-12T17:21:38.456Z,98352.33
2018-05-12T17:24:06.719Z,98347.25
2018-05-12T17:26:35.726Z,98349.19
2018-05-12T17:29:04.001Z,98347.87
2018-05-12T17:31:32.300Z,98348.27
2018-05-12T17:34:00.633Z,98338.39
2018-05-12T17:36:28.932Z,98342.22
2018-05-12T17:38:57.231Z,98340.66
2018-05-12T17:41:25.536Z,98340.81
2018-05-12T17:43:54.287Z,98338.13
2018-05-12T17:46:22.801Z,98344.52
2018-05-12T17:48:51.123Z,98339.64
2018-05-12T17:51:19.453Z,98338.50
2018-05-12T17:53:47.743Z,98340.23
2018-05-12T17:56:16.032Z,98333.25
2018-05-12T17:58:44.424Z,98330.70
2018-05-12T18:01:12.768Z,98325.07
2018-05-12T18:03:41.022Z,98322.72
2018-05-12T18:06:09.331Z,98324.29
2018-05-12T18:08:37.651Z,98319.38
2018-05-12T18:11:05.930Z,98322.98
2018-05-12T18:13:34.268Z,98315.81
2018-05-12T18:16:02.532Z,98318.88
2018-05-12T18:18:30.818Z,98322.10
2018-05-12T18:20:59.173Z,98314.02
2018-05-12T18:23:27.448Z,98315.20
2018-05-12T18:25:55.739Z,98318.02
2018-05-12T18:28:24.061Z,98323.94
2018-05-12T18:30:52.331Z,98312.93
2018-05-12T18:33:20.627Z,98307.05
2018-05-12T18:35:49.055Z,98306.61
2018-05-12T18:38:17.330Z,98307.95
2018-05-12T18:40:45.603Z,98309.70
2018-05-12T18:43:13.888Z,98310.45
2018-05-12T18:45:42.155Z,98306.59
2018-05-12T18:48:10.450Z,98311.75
2018-05-12T18:50:38.797Z,98319.29
2018-05-12T18:53:07.027Z,98314.39
2018-05-12T18:55:35.387Z,98316.51
2018-05-12T18:58:03.702Z,98313.43
2018-05-12T19:00:31.994Z,98302.27
2018-05-12T19:03:00.283Z,98310.71
2018-05-12T19:05:28.649Z,98305.12
2018-05-12T19:07:56.896Z,98309.59
2018-05-12T19:10:25.313Z,98311.22
2018-05-12T19:12:53.575Z,98312.62
2018-05-12T19:15:21.875Z,98318.59
2018-05-12T19:17:50.148Z,98323.48
2018-05-12T19:20:18.472Z,98327.04
2018-05-12T19:22:46.830Z,98326.05
2018-05-12T19:25:15.139Z,98323.84
2018-05-12T19:27:43.433Z,98327.21
2018-05-12T19:30:11.736Z,98324.07
2018-05-12T19:32:40.028Z,98319.95
2018-05-12T19:35:09.342Z,98314.56
2018-05-12T19:37:37.619Z,98320.21
2018-05-12T19:40:05.955Z,98323.58
2018-05-12T19:42:34.351Z,98332.38
2018-05-12T19:45:02.622Z,98332.48
2018-05-12T19:47:30.919Z,98330.60
2018-05-12T19:49:59.372Z,98336.25
2018-05-12T19:52:28.845Z,98332.09
2018-05-12T19:54:57.233Z,98337.08
2018-05-12T19:57:26.403Z,98332.91
2018-05-12T19:59:54.705Z,98335.93
2018-05-12T20:02:23.015Z,98334.24
2018-05-12T20:04:51.327Z,98337.12
2018-05-12T20:07:19.712Z,98340.48
2018-05-12T20:09:48.029Z,98339.72
2018-05-12T20:12:22.225Z,98340.53
2018-05-12T20:14:50.510Z,98330.97
2018-05-12T20:17:18.821Z,98336.95
2018-05-12T20:19:47.136Z,98327.77
2018-05-12T20:25:25.354Z,98330.56
2018-05-12T20:27:53.696Z,98331.61
2018-05-12T20:30:22.051Z,98331.81
2018-05-12T20:32:51.377Z,98334.43
2018-05-12T20:35:19.630Z,98333.73
2018-05-12T20:37:47.933Z,98331.55
2018-05-12T20:40:16.237Z,98332.69
2018-05-12T20:42:44.542Z,98325.23
2018-05-12T20:45:12.847Z,98308.24
2018-05-12T20:47:41.160Z,98321.61
2018-05-12T20:50:09.436Z,98323.20
2018-05-12T20:52:39.585Z,98319.41
2018-05-12T20:55:08.080Z,98315.22
2018-05-12T20:57:36.377Z,98318.16
2018-05-12T21:00:04.722Z,98311.37
2018-05-12T21:02:33.069Z,98303.72
2018-05-12T21:05:01.370Z,98299.39
2018-05-12T21:07:29.637Z,98305.03
2018-05-12T21:09:57.972Z,98279.55
2018-05-12T21:12:26.347Z,98300.59
2018-05-12T21:15:02.037Z,98302.41
2018-05-12T21:17:30.346Z,98309.29
2018-05-12T21:19:58.839Z,98308.92
2018-05-12T21:22:30.299Z,98318.91
2018-05-12T21:24:59.631Z,98318.02
2018-05-12T21:27:28.255Z,98318.70
2018-05-12T21:29:56.586Z,98318.39
2018-05-12T21:32:25.008Z,98325.23
2018-05-12T21:34:53.378Z,98316.61
2018-05-12T21:37:21.751Z,98324.64
2018-05-12T21:39:50.075Z,98320.36
2018-05-12T21:42:18.363Z,98322.22
2018-05-12T21:44:46.686Z,98319.99
2018-05-12T21:47:14.992Z,98314.64
2018-05-12T21:49:43.362Z,98320.25
2018-05-12T21:52:11.658Z,98311.46
2018-05-12T21:54:39.987Z,98305.85
2018-05-12T21:57:08.296Z,98299.09
2018-05-12T21:59:36.540Z,98291.22
2018-05-12T22:02:05.213Z,98282.09
2018-05-12T22:04:33.513Z,98285.08
2018-05-12T22:07:01.820Z,98280.74
2018-05-12T22:09:30.091Z,98272.38
2018-05-12T22:11:58.398Z,98285.66
2018-05-12T22:14:26.678Z,98287.70
2018-05-12T22:16:54.976Z,98285.97
2018-05-12T22:19:23.246Z,98292.33
2018-05-12T22:21:51.535Z,98275.64
2018-05-12T22:24:19.879Z,98264.20
2018-05-12T22:26:48.125Z,98264.83
2018-05-12T22:29:16.475Z,98277.31
2018-05-12T22:31:44.749Z,98292.05
2018-05-12T22:34:13.031Z,98279.91
2018-05-12T22:36:41.308Z,98295.13
2018-05-12T22:39:09.589Z,98304.25
2018-05-12T22:41:37.844Z,98306.00
2018-05-12T22:44:06.125Z,98305.83
2018-05-12T22:46:34.399Z,98291.34
2018-05-12T22:49:02.824Z,98299.38
2018-05-12T22:51:31.186Z,98300.16
2018-05-12T22:53:59.514Z,98308.39
2018-05-12T22:56:27.770Z,98300.89
2018-05-12T22:58:56.089Z,98299.73
2018-05-12T23:01:24.378Z,98298.52
2018-05-12T23:03:52.714Z,98285.23
2018-05-12T23:06:20.981Z,98277.92
2018-05-12T23:08:49.283Z,98286.58
2018-05-12T23:11:18.345Z,98283.10
2018-05-12T23:13:46.717Z,98275.04
2018-05-12T23:16:15.014Z,98267.24
2018-05-12T23:18:44.330Z,98267.09
2018-05-12T23:21:12.632Z,98267.39
2018-05-12T23:23:40.926Z,98290.21
2018-05-12T23:26:09.239Z,98302.64
2018-05-12T23:28:37.524Z,98308.58
2018-05-12T23:31:05.825Z,98308.31
2018-05-12T23:33:34.100Z,98308.08
2018-05-12T23:36:02.443Z,98313.10
2018-05-12T23:38:30.687Z,98315.34
2018-05-12T23:40:58.975Z,98316.77
2018-05-12T23:43:27.236Z,98318.72
2018-05-12T23:45:55.529Z,98319.03
2018-05-12T23:48:23.801Z,98320.53
2018-05-12T23:50:52.082Z,98309.05
2018-05-12T23:53:20.360Z,98308.25
2018-05-12T23:55:48.684Z,98311.56
2018-05-12T23:58:17.042Z,98307.64
